sensor_id;sensor_type;location;lat;lon;timestamp;pressure;altitude;pressure_sealevel;temperature;humidity
23303;BME280;11820;48.738;9.092;2023-03-31T00:02:07;95710.81;;;12.02;100.00
23303;BME280;11820;48.738;9.092;2023-03-31T00:04:38;95708.22;;;12.02;100.00
23303;BME280;11820;48.738;9.092;2023-03-31T00:07:04;95705.63;;;12.02;100.00
23303;BME280;11820;48.738;9.092;2023-03-31T00:09:30;95694.09;;;11.98;100.00
23303;BME280;11820;48.738;9.092;2023-03-31T00:11:57;95696.25;;;12.01;100.00
23303;BME280;11820;48.738;9.092;2023-03-31T00:14:23;95694.69;;;12.00;100.00
23303;BME280;11820;48.738;9.092;2023-03-31T00:16:48;95700.06;;;11.98;100.00
23303;BME280;11820;48.738;9.092;2023-03-31T00:19:13;95686.34;;;11.98;100.00
23303;BME280;11820;48.738;9.092;2023-03-31T00:21:47;95687.78;;;11.94;100.00
23303;BME280;11820;48.738;9.092;2023-03-31T00:24:13;95677.56;;;11.99;100.00
23303;BME280;11820;48.738;9.092;2023-03-31T00:26:39;95672.38;;;11.99;100.00
23303;BME280;11820;48.738;9.092;2023-03-31T00:29:06;95665.09;;;11.89;100.00
23303;BME280;11820;48.738;9.092;2023-03-31T00:31:33;95669.50;;;11.89;100.00
23303;BME280;11820;48.738;9.092;2023-03-31T00:33:58;95657.47;;;11.94;100.00
23303;BME280;11820;48.738;9.092;2023-03-31T00:36:24;95656.03;;;11.98;100.00
23303;BME280;11820;48.738;9.092;2023-03-31T00:39:01;95657.41;;;12.01;100.00
23303;BME280;11820;48.738;9.092;2023-03-31T00:41:28;95648.84;;;12.00;100.00
23303;BME280;11820;48.738;9.092;2023-03-31T00:44:23;95651.22;;;12.02;100.00
23303;BME280;11820;48.738;9.092;2023-03-31T00:51:48;95642.44;;;12.03;100.00
23303;BME280;11820;48.738;9.092;2023-03-31T00:54:15;95635.78;;;12.07;100.00
23303;BME280;11820;48.738;9.092;2023-03-31T00:56:44;95631.63;;;12.06;100.00
23303;BME280;11820;48.738;9.092;2023-03-31T00:59:13;95632.50;;;12.00;100.00
23303;BME280;11820;48.738;9.092;2023-03-31T01:01:39;95636.47;;;12.02;100.00
23303;BME280;11820;48.738;9.092;2023-03-31T01:04:07;95637.41;;;11.90;100.00
23303;BME280;11820;48.738;9.092;2023-03-31T01:06:37;95623.72;;;12.01;100.00
23303;BME280;11820;48.738;9.092;2023-03-31T01:09:06;95621.69;;;12.03;100.00
23303;BME280;11820;48.738;9.092;2023-03-31T01:11:32;95614.50;;;12.05;100.00
23303;BME280;11820;48.738;9.092;2023-03-31T01:13:59;95597.16;;;12.05;100.00
23303;BME280;11820;48.738;9.092;2023-03-31T01:16:25;95591.84;;;12.00;100.00
23303;BME280;11820;48.738;9.092;2023-03-31T01:18:50;95577.31;;;12.11;100.00
23303;BME280;11820;48.738;9.092;2023-03-31T01:26:57;95575.34;;;12.13;100.00
23303;BME280;11820;48.738;9.092;2023-03-31T01:34:54;95578.66;;;12.02;100.00
23303;BME280;11820;48.738;9.092;2023-03-31T01:38:12;95580.03;;;12.04;100.00
23303;BME280;11820;48.738;9.092;2023-03-31T01:41:06;95595.53;;;11.93;100.00
23303;BME280;11820;48.738;9.092;2023-03-31T01:54:20;95595.78;;;12.03;100.00
23303;BME280;11820;48.738;9.092;2023-03-31T01:56:51;95598.94;;;12.05;100.00
23303;BME280;11820;48.738;9.092;2023-03-31T01:59:31;95596.91;;;12.07;100.00
23303;BME280;11820;48.738;9.092;2023-03-31T02:04:36;95591.69;;;11.95;100.00
23303;BME280;11820;48.738;9.092;2023-03-31T02:07:21;95583.00;;;11.90;100.00
23303;BME280;11820;48.738;9.092;2023-03-31T02:09:52;95574.06;;;11.86;100.00
23303;BME280;11820;48.738;9.092;2023-03-31T02:12:21;95578.78;;;11.77;100.00
23303;BME280;11820;48.738;9.092;2023-03-31T02:14:51;95572.28;;;11.68;100.00
23303;BME280;11820;48.738;9.092;2023-03-31T02:17:20;95574.38;;;11.60;100.00
23303;BME280;11820;48.738;9.092;2023-03-31T02:19:49;95548.97;;;11.68;100.00
23303;BME280;11820;48.738;9.092;2023-03-31T02:22:19;95538.72;;;11.62;100.00
23303;BME280;11820;48.738;9.092;2023-03-31T02:24:47;95541.38;;;11.55;100.00
23303;BME280;11820;48.738;9.092;2023-03-31T02:27:18;95541.56;;;11.36;100.00
23303;BME280;11820;48.738;9.092;2023-03-31T02:29:45;95530.63;;;11.52;100.00
23303;BME280;11820;48.738;9.092;2023-03-31T02:34:36;95520.00;;;11.42;100.00
23303;BME280;11820;48.738;9.092;2023-03-31T02:37:02;95504.66;;;11.23;100.00
23303;BME280;11820;48.738;9.092;2023-03-31T02:39:31;95482.94;;;11.41;100.00
23303;BME280;11820;48.738;9.092;2023-03-31T02:41:57;95462.09;;;11.54;100.00
23303;BME280;11820;48.738;9.092;2023-03-31T02:44:23;95443.84;;;11.49;100.00
23303;BME280;11820;48.738;9.092;2023-03-31T02:46:48;95435.84;;;11.51;100.00
23303;BME280;11820;48.738;9.092;2023-03-31T02:49:15;95447.84;;;11.45;100.00
23303;BME280;11820;48.738;9.092;2023-03-31T02:52:10;95442.31;;;11.60;100.00
23303;BME280;11820;48.738;9.092;2023-03-31T02:57:47;95427.63;;;11.54;100.00
23303;BME280;11820;48.738;9.092;2023-03-31T03:09:12;95396.44;;;11.49;100.00
23303;BME280;11820;48.738;9.092;2023-03-31T03:11:42;95387.16;;;11.41;100.00
23303;BME280;11820;48.738;9.092;2023-03-31T03:14:27;95380.34;;;11.47;100.00
23303;BME280;11820;48.738;9.092;2023-03-31T03:17:05;95363.78;;;11.48;100.00
23303;BME280;11820;48.738;9.092;2023-03-31T03:19:32;95360.97;;;11.38;100.00
23303;BME280;11820;48.738;9.092;2023-03-31T03:21:57;95337.75;;;11.31;100.00
23303;BME280;11820;48.738;9.092;2023-03-31T03:24:23;95334.72;;;11.34;100.00
23303;BME280;11820;48.738;9.092;2023-03-31T03:26:53;95325.47;;;11.27;100.00
23303;BME280;11820;48.738;9.092;2023-03-31T03:29:18;95327.22;;;11.15;100.00
23303;BME280;11820;48.738;9.092;2023-03-31T03:31:43;95320.94;;;11.23;100.00
23303;BME280;11820;48.738;9.092;2023-03-31T03:34:09;95310.69;;;11.16;100.00
23303;BME280;11820;48.738;9.092;2023-03-31T03:36:35;95304.84;;;11.21;100.00
23303;BME280;11820;48.738;9.092;2023-03-31T03:39:03;95309.59;;;10.94;100.00
23303;BME280;11820;48.738;9.092;2023-03-31T03:41:29;95309.59;;;10.94;100.00
23303;BME280;11820;48.738;9.092;2023-03-31T03:43:55;95303.63;;;10.94;100.00
23303;BME280;11820;48.738;9.092;2023-03-31T03:46:20;95306.44;;;10.92;100.00
23303;BME280;11820;48.738;9.092;2023-03-31T03:48:46;95284.25;;;10.85;100.00
23303;BME280;11820;48.738;9.092;2023-03-31T03:51:11;95282.31;;;10.80;100.00
23303;BME280;11820;48.738;9.092;2023-03-31T03:53:36;95271.81;;;10.93;100.00
23303;BME280;11820;48.738;9.092;2023-03-31T03:56:02;95264.13;;;10.87;100.00
23303;BME280;11820;48.738;9.092;2023-03-31T03:58:27;95249.25;;;10.82;100.00
23303;BME280;11820;48.738;9.092;2023-03-31T04:00:53;95256.31;;;10.75;100.00
23303;BME280;11820;48.738;9.092;2023-03-31T04:03:18;95249.22;;;10.71;100.00
23303;BME280;11820;48.738;9.092;2023-03-31T04:05:43;95237.09;;;10.71;100.00
23303;BME280;11820;48.738;9.092;2023-03-31T04:08:09;95232.63;;;10.78;100.00
23303;BME280;11820;48.738;9.092;2023-03-31T04:10:35;95239.13;;;10.69;100.00
23303;BME280;11820;48.738;9.092;2023-03-31T04:13:00;95210.56;;;10.64;100.00
23303;BME280;11820;48.738;9.092;2023-03-31T04:15:25;95206.75;;;10.78;100.00
23303;BME280;11820;48.738;9.092;2023-03-31T04:17:51;95201.25;;;10.75;100.00
23303;BME280;11820;48.738;9.092;2023-03-31T04:20:19;95215.53;;;10.77;100.00
23303;BME280;11820;48.738;9.092;2023-03-31T04:22:45;95201.94;;;10.52;100.00
23303;BME280;11820;48.738;9.092;2023-03-31T04:25:15;95199.19;;;10.65;100.00
23303;BME280;11820;48.738;9.092;2023-03-31T04:27:45;95203.69;;;10.70;100.00
23303;BME280;11820;48.738;9.092;2023-03-31T04:30:17;95194.00;;;10.54;100.00
23303;BME280;11820;48.738;9.092;2023-03-31T04:32:54;95200.22;;;10.64;100.00
23303;BME280;11820;48.738;9.092;2023-03-31T04:35:25;95192.13;;;10.72;100.00
23303;BME280;11820;48.738;9.092;2023-03-31T04:37:52;95196.16;;;10.68;100.00
23303;BME280;11820;48.738;9.092;2023-03-31T04:40:23;95194.47;;;10.62;100.00
23303;BME280;11820;48.738;9.092;2023-03-31T04:42:49;95183.56;;;10.72;100.00
23303;BME280;11820;48.738;9.092;2023-03-31T04:45:15;95179.31;;;10.77;100.00
23303;BME280;11820;48.738;9.092;2023-03-31T04:47:41;95179.31;;;10.77;100.00
23303;BME280;11820;48.738;9.092;2023-03-31T04:50:08;95178.88;;;10.80;100.00
23303;BME280;11820;48.738;9.092;2023-03-31T04:52:34;95173.63;;;10.87;100.00
23303;BME280;11820;48.738;9.092;2023-03-31T04:55:00;95171.81;;;10.76;100.00
23303;BME280;11820;48.738;9.092;2023-03-31T04:57:25;95161.13;;;10.84;100.00
23303;BME280;11820;48.738;9.092;2023-03-31T04:59:50;95163.94;;;10.82;100.00
23303;BME280;11820;48.738;9.092;2023-03-31T05:02:16;95165.31;;;10.85;100.00
23303;BME280;11820;48.738;9.092;2023-03-31T05:04:47;95149.81;;;10.96;100.00
23303;BME280;11820;48.738;9.092;2023-03-31T05:07:13;95158.22;;;10.92;100.00
23303;BME280;11820;48.738;9.092;2023-03-31T05:09:38;95145.63;;;10.95;100.00
23303;BME280;11820;48.738;9.092;2023-03-31T05:12:03;95162.06;;;10.89;100.00
23303;BME280;11820;48.738;9.092;2023-03-31T05:14:29;95170.38;;;10.91;100.00
23303;BME280;11820;48.738;9.092;2023-03-31T05:16:55;95178.59;;;10.88;100.00
23303;BME280;11820;48.738;9.092;2023-03-31T05:19:22;95191.25;;;10.78;100.00
23303;BME280;11820;48.738;9.092;2023-03-31T05:21:47;95204.06;;;10.73;100.00
23303;BME280;11820;48.738;9.092;2023-03-31T05:24:13;95215.22;;;10.85;100.00
23303;BME280;11820;48.738;9.092;2023-03-31T05:26:38;95202.03;;;10.75;100.00
23303;BME280;11820;48.738;9.092;2023-03-31T05:29:05;95198.44;;;10.76;100.00
23303;BME280;11820;48.738;9.092;2023-03-31T05:31:30;95202.38;;;10.79;100.00
23303;BME280;11820;48.738;9.092;2023-03-31T05:33:55;95188.44;;;10.80;100.00
23303;BME280;11820;48.738;9.092;2023-03-31T05:36:21;95190.22;;;10.79;100.00
23303;BME280;11820;48.738;9.092;2023-03-31T05:38:48;95175.19;;;10.88;100.00
23303;BME280;11820;48.738;9.092;2023-03-31T05:41:13;95172.41;;;10.89;100.00
23303;BME280;11820;48.738;9.092;2023-03-31T05:43:40;95173.38;;;10.77;100.00
23303;BME280;11820;48.738;9.092;2023-03-31T05:46:07;95153.16;;;10.85;100.00
23303;BME280;11820;48.738;9.092;2023-03-31T05:48:32;95144.16;;;10.88;100.00
23303;BME280;11820;48.738;9.092;2023-03-31T05:50:59;95149.25;;;10.94;100.00
23303;BME280;11820;48.738;9.092;2023-03-31T05:53:25;95132.38;;;11.03;100.00
23303;BME280;11820;48.738;9.092;2023-03-31T05:55:56;95124.06;;;11.01;100.00
23303;BME280;11820;48.738;9.092;2023-03-31T05:58:22;95126.44;;;11.03;100.00
23303;BME280;11820;48.738;9.092;2023-03-31T06:00:47;95122.81;;;10.92;100.00
23303;BME280;11820;48.738;9.092;2023-03-31T06:03:13;95121.31;;;10.73;100.00
23303;BME280;11820;48.738;9.092;2023-03-31T06:05:38;95116.63;;;10.93;100.00
23303;BME280;11820;48.738;9.092;2023-03-31T06:08:05;95097.41;;;10.89;100.00
23303;BME280;11820;48.738;9.092;2023-03-31T06:10:31;95095.66;;;10.72;100.00
23303;BME280;11820;48.738;9.092;2023-03-31T06:12:57;95096.13;;;10.69;100.00
23303;BME280;11820;48.738;9.092;2023-03-31T06:15:22;95092.50;;;10.58;100.00
23303;BME280;11820;48.738;9.092;2023-03-31T06:17:47;95085.69;;;10.75;100.00
23303;BME280;11820;48.738;9.092;2023-03-31T06:20:12;95073.56;;;10.76;100.00
23303;BME280;11820;48.738;9.092;2023-03-31T06:22:38;95076.81;;;10.94;100.00
23303;BME280;11820;48.738;9.092;2023-03-31T06:25:03;95070.63;;;10.84;100.00
23303;BME280;11820;48.738;9.092;2023-03-31T06:27:29;95067.59;;;10.98;100.00
23303;BME280;11820;48.738;9.092;2023-03-31T06:29:54;95067.38;;;10.88;100.00
23303;BME280;11820;48.738;9.092;2023-03-31T06:32:20;95072.19;;;10.85;100.00
23303;BME280;11820;48.738;9.092;2023-03-31T06:34:45;95074.13;;;10.89;100.00
23303;BME280;11820;48.738;9.092;2023-03-31T06:37:10;95079.41;;;10.83;100.00
23303;BME280;11820;48.738;9.092;2023-03-31T06:39:36;95078.50;;;10.77;100.00
23303;BME280;11820;48.738;9.092;2023-03-31T06:42:01;95074.69;;;10.80;100.00
23303;BME280;11820;48.738;9.092;2023-03-31T06:44:26;95079.94;;;10.73;100.00
23303;BME280;11820;48.738;9.092;2023-03-31T06:46:52;95087.50;;;10.75;100.00
23303;BME280;11820;48.738;9.092;2023-03-31T06:49:17;95096.03;;;10.75;100.00
23303;BME280;11820;48.738;9.092;2023-03-31T06:51:42;95099.53;;;10.81;100.00
23303;BME280;11820;48.738;9.092;2023-03-31T06:54:07;95106.00;;;10.72;100.00
23303;BME280;11820;48.738;9.092;2023-03-31T06:56:33;95120.72;;;10.60;100.00
23303;BME280;11820;48.738;9.092;2023-03-31T06:58:58;95132.06;;;10.59;100.00
23303;BME280;11820;48.738;9.092;2023-03-31T07:01:23;95158.94;;;10.58;100.00
23303;BME280;11820;48.738;9.092;2023-03-31T07:03:49;95163.97;;;10.53;100.00
23303;BME280;11820;48.738;9.092;2023-03-31T07:06:15;95172.38;;;10.48;100.00
23303;BME280;11820;48.738;9.092;2023-03-31T07:08:40;95161.47;;;10.46;100.00
23303;BME280;11820;48.738;9.092;2023-03-31T07:11:05;95140.13;;;10.39;100.00
23303;BME280;11820;48.738;9.092;2023-03-31T07:13:31;95108.00;;;10.47;100.00
23303;BME280;11820;48.738;9.092;2023-03-31T07:15:56;95103.06;;;10.45;100.00
23303;BME280;11820;48.738;9.092;2023-03-31T07:18:22;95077.22;;;10.45;100.00
23303;BME280;11820;48.738;9.092;2023-03-31T07:20:56;95081.47;;;10.51;100.00
23303;BME280;11820;48.738;9.092;2023-03-31T07:23:21;95080.81;;;10.44;100.00
23303;BME280;11820;48.738;9.092;2023-03-31T07:25:47;95069.13;;;10.53;100.00
23303;BME280;11820;48.738;9.092;2023-03-31T07:28:12;95071.47;;;10.43;100.00
23303;BME280;11820;48.738;9.092;2023-03-31T07:30:39;95080.91;;;10.49;100.00
23303;BME280;11820;48.738;9.092;2023-03-31T07:33:04;95078.78;;;10.46;100.00
23303;BME280;11820;48.738;9.092;2023-03-31T07:35:30;95086.31;;;10.48;100.00
23303;BME280;11820;48.738;9.092;2023-03-31T07:37:55;95094.41;;;10.51;100.00
23303;BME280;11820;48.738;9.092;2023-03-31T07:40:23;95081.56;;;10.45;100.00
23303;BME280;11820;48.738;9.092;2023-03-31T07:42:49;95077.88;;;10.52;100.00
23303;BME280;11820;48.738;9.092;2023-03-31T07:45:17;95083.66;;;10.77;100.00
23303;BME280;11820;48.738;9.092;2023-03-31T07:47:43;95101.44;;;10.74;100.00
23303;BME280;11820;48.738;9.092;2023-03-31T07:50:11;95076.47;;;10.79;100.00
23303;BME280;11820;48.738;9.092;2023-03-31T07:52:37;95074.00;;;10.73;100.00
23303;BME280;11820;48.738;9.092;2023-03-31T07:55:03;95071.53;;;10.66;100.00
23303;BME280;11820;48.738;9.092;2023-03-31T07:57:29;95068.91;;;10.55;100.00
23303;BME280;11820;48.738;9.092;2023-03-31T07:59:54;95070.50;;;10.67;100.00
23303;BME280;11820;48.738;9.092;2023-03-31T08:02:20;95066.81;;;10.75;100.00
23303;BME280;11820;48.738;9.092;2023-03-31T08:04:46;95074.31;;;10.76;100.00
23303;BME280;11820;48.738;9.092;2023-03-31T08:07:13;95081.31;;;10.87;100.00
23303;BME280;11820;48.738;9.092;2023-03-31T08:09:39;95068.59;;;10.86;100.00
23303;BME280;11820;48.738;9.092;2023-03-31T08:12:05;95061.19;;;11.01;100.00
23303;BME280;11820;48.738;9.092;2023-03-31T08:14:31;95059.72;;;11.05;100.00
23303;BME280;11820;48.738;9.092;2023-03-31T08:16:56;95059.84;;;11.10;100.00
23303;BME280;11820;48.738;9.092;2023-03-31T08:19:24;95053.19;;;11.25;100.00
23303;BME280;11820;48.738;9.092;2023-03-31T08:21:49;95050.94;;;11.17;100.00
23303;BME280;11820;48.738;9.092;2023-03-31T08:24:16;95036.88;;;11.25;100.00
23303;BME280;11820;48.738;9.092;2023-03-31T08:26:41;95050.69;;;11.30;100.00
23303;BME280;11820;48.738;9.092;2023-03-31T08:29:07;95041.34;;;11.40;100.00
23303;BME280;11820;48.738;9.092;2023-03-31T08:31:32;95035.59;;;11.50;100.00
23303;BME280;11820;48.738;9.092;2023-03-31T08:33:58;95035.25;;;11.58;100.00
23303;BME280;11820;48.738;9.092;2023-03-31T08:36:24;95033.81;;;11.62;100.00
23303;BME280;11820;48.738;9.092;2023-03-31T08:38:50;95026.91;;;11.67;100.00
23303;BME280;11820;48.738;9.092;2023-03-31T08:43:47;95023.34;;;11.85;100.00
23303;BME280;11820;48.738;9.092;2023-03-31T08:46:16;95041.13;;;11.93;100.00
23303;BME280;11820;48.738;9.092;2023-03-31T08:48:48;95049.63;;;12.05;100.00
23303;BME280;11820;48.738;9.092;2023-03-31T08:51:22;95032.44;;;12.15;100.00
23303;BME280;11820;48.738;9.092;2023-03-31T08:54:30;95033.56;;;12.36;100.00
23303;BME280;11820;48.738;9.092;2023-03-31T08:56:57;95064.31;;;12.44;100.00
23303;BME280;11820;48.738;9.092;2023-03-31T08:59:31;95028.97;;;12.71;100.00
23303;BME280;11820;48.738;9.092;2023-03-31T09:04:49;95038.25;;;12.67;100.00
23303;BME280;11820;48.738;9.092;2023-03-31T09:18:17;95010.09;;;13.29;100.00
23303;BME280;11820;48.738;9.092;2023-03-31T09:20:47;95028.47;;;13.44;100.00
23303;BME280;11820;48.738;9.092;2023-03-31T09:23:39;95009.13;;;13.14;100.00
23303;BME280;11820;48.738;9.092;2023-03-31T09:26:14;95015.09;;;13.14;100.00
23303;BME280;11820;48.738;9.092;2023-03-31T09:28:43;95024.56;;;13.04;100.00
23303;BME280;11820;48.738;9.092;2023-03-31T09:31:14;95033.53;;;12.97;100.00
23303;BME280;11820;48.738;9.092;2023-03-31T09:33:44;95033.34;;;12.87;100.00
23303;BME280;11820;48.738;9.092;2023-03-31T09:36:18;95014.00;;;12.78;100.00
23303;BME280;11820;48.738;9.092;2023-03-31T09:38:44;95033.69;;;12.74;100.00
23303;BME280;11820;48.738;9.092;2023-03-31T09:41:11;95048.16;;;12.70;100.00
23303;BME280;11820;48.738;9.092;2023-03-31T09:43:39;95040.50;;;12.80;100.00
23303;BME280;11820;48.738;9.092;2023-03-31T09:46:14;95015.50;;;12.90;100.00
23303;BME280;11820;48.738;9.092;2023-03-31T09:48:48;95014.19;;;13.25;100.00
23303;BME280;11820;48.738;9.092;2023-03-31T09:51:19;95015.72;;;13.21;100.00
23303;BME280;11820;48.738;9.092;2023-03-31T09:53:50;95031.28;;;13.21;100.00
23303;BME280;11820;48.738;9.092;2023-03-31T09:56:45;94995.22;;;13.68;100.00
23303;BME280;11820;48.738;9.092;2023-03-31T09:59:19;94999.72;;;13.51;100.00
23303;BME280;11820;48.738;9.092;2023-03-31T10:01:48;94999.66;;;13.67;100.00
23303;BME280;11820;48.738;9.092;2023-03-31T10:04:21;94978.56;;;13.90;100.00
23303;BME280;11820;48.738;9.092;2023-03-31T10:06:48;94963.16;;;13.79;100.00
23303;BME280;11820;48.738;9.092;2023-03-31T10:09:14;94968.13;;;13.85;100.00
23303;BME280;11820;48.738;9.092;2023-03-31T10:11:54;94959.66;;;13.68;100.00
23303;BME280;11820;48.738;9.092;2023-03-31T10:14:26;94948.09;;;14.12;100.00
23303;BME280;11820;48.738;9.092;2023-03-31T10:16:56;94941.47;;;14.21;100.00
23303;BME280;11820;48.738;9.092;2023-03-31T10:19:24;94953.84;;;14.41;100.00
23303;BME280;11820;48.738;9.092;2023-03-31T10:22:04;94954.78;;;14.61;100.00
23303;BME280;11820;48.738;9.092;2023-03-31T10:24:41;94941.50;;;14.26;100.00
23303;BME280;11820;48.738;9.092;2023-03-31T10:27:24;94938.38;;;14.24;100.00
23303;BME280;11820;48.738;9.092;2023-03-31T10:29:52;94935.31;;;14.32;100.00
23303;BME280;11820;48.738;9.092;2023-03-31T10:32:22;94913.25;;;14.81;100.00
23303;BME280;11820;48.738;9.092;2023-03-31T10:34:49;94925.03;;;14.88;100.00
23303;BME280;11820;48.738;9.092;2023-03-31T10:37:21;94941.19;;;14.54;100.00
23303;BME280;11820;48.738;9.092;2023-03-31T10:39:47;94933.75;;;14.31;100.00
23303;BME280;11820;48.738;9.092;2023-03-31T10:42:21;94915.88;;;14.81;100.00
23303;BME280;11820;48.738;9.092;2023-03-31T10:44:47;94923.69;;;14.45;100.00
23303;BME280;11820;48.738;9.092;2023-03-31T10:49:39;94921.13;;;14.50;100.00
23303;BME280;11820;48.738;9.092;2023-03-31T10:52:16;94885.53;;;16.03;100.00
23303;BME280;11820;48.738;9.092;2023-03-31T10:54:53;94893.56;;;15.71;93.07
23303;BME280;11820;48.738;9.092;2023-03-31T10:57:34;94899.00;;;15.45;93.05
23303;BME280;11820;48.738;9.092;2023-03-31T11:00:37;94896.97;;;14.54;96.46
23303;BME280;11820;48.738;9.092;2023-03-31T11:06:09;94951.94;;;14.31;100.00
23303;BME280;11820;48.738;9.092;2023-03-31T11:11:12;94895.91;;;13.87;100.00
23303;BME280;11820;48.738;9.092;2023-03-31T11:13:52;94936.22;;;13.63;100.00
23303;BME280;11820;48.738;9.092;2023-03-31T11:30:37;95049.56;;;10.34;100.00
23303;BME280;11820;48.738;9.092;2023-03-31T11:33:40;95065.13;;;10.16;100.00
23303;BME280;11820;48.738;9.092;2023-03-31T11:36:26;95045.00;;;9.89;100.00
23303;BME280;11820;48.738;9.092;2023-03-31T11:39:07;95054.78;;;9.98;100.00
23303;BME280;11820;48.738;9.092;2023-03-31T11:44:12;95047.22;;;9.85;100.00
23303;BME280;11820;48.738;9.092;2023-03-31T11:46:50;95038.00;;;10.07;100.00
23303;BME280;11820;48.738;9.092;2023-03-31T11:49:21;95025.97;;;10.42;100.00
23303;BME280;11820;48.738;9.092;2023-03-31T11:51:52;95023.94;;;10.44;100.00
23303;BME280;11820;48.738;9.092;2023-03-31T11:57:29;95011.69;;;11.99;100.00
23303;BME280;11820;48.738;9.092;2023-03-31T11:59:59;94997.72;;;13.36;100.00
23303;BME280;11820;48.738;9.092;2023-03-31T12:02:38;94974.75;;;14.19;100.00
23303;BME280;11820;48.738;9.092;2023-03-31T12:05:07;94968.34;;;15.09;100.00
23303;BME280;11820;48.738;9.092;2023-03-31T12:07:39;94973.59;;;14.73;100.00
23303;BME280;11820;48.738;9.092;2023-03-31T12:10:37;94955.53;;;15.54;100.00
23303;BME280;11820;48.738;9.092;2023-03-31T12:16:04;94956.19;;;14.78;100.00
23303;BME280;11820;48.738;9.092;2023-03-31T12:18:36;94951.44;;;14.65;100.00
23303;BME280;11820;48.738;9.092;2023-03-31T12:21:06;94963.41;;;14.35;100.00
23303;BME280;11820;48.738;9.092;2023-03-31T12:23:39;94967.06;;;15.17;100.00
23303;BME280;11820;48.738;9.092;2023-03-31T12:28:55;94944.50;;;16.43;100.00
23303;BME280;11820;48.738;9.092;2023-03-31T12:31:23;94918.91;;;16.45;100.00
23303;BME280;11820;48.738;9.092;2023-03-31T12:33:56;94911.75;;;17.06;100.00
23303;BME280;11820;48.738;9.092;2023-03-31T12:53:10;94877.34;;;17.96;100.00
23303;BME280;11820;48.738;9.092;2023-03-31T12:55:43;94875.63;;;17.81;92.75
23303;BME280;11820;48.738;9.092;2023-03-31T13:01:15;94902.72;;;16.63;93.83
23303;BME280;11820;48.738;9.092;2023-03-31T13:08:58;94914.00;;;14.35;100.00
23303;BME280;11820;48.738;9.092;2023-03-31T13:14:20;94912.44;;;13.76;100.00
23303;BME280;11820;48.738;9.092;2023-03-31T13:16:51;94910.69;;;13.55;100.00
23303;BME280;11820;48.738;9.092;2023-03-31T13:19:30;94917.72;;;13.33;100.00
23303;BME280;11820;48.738;9.092;2023-03-31T13:21:58;94928.47;;;12.83;100.00
23303;BME280;11820;48.738;9.092;2023-03-31T13:24:24;94919.13;;;12.11;100.00
23303;BME280;11820;48.738;9.092;2023-03-31T13:26:52;94985.59;;;12.17;100.00
23303;BME280;11820;48.738;9.092;2023-03-31T13:29:21;94947.72;;;12.16;100.00
23303;BME280;11820;48.738;9.092;2023-03-31T13:34:49;94931.78;;;11.91;100.00
23303;BME280;11820;48.738;9.092;2023-03-31T13:43:01;95010.94;;;10.85;100.00
23303;BME280;11820;48.738;9.092;2023-03-31T13:48:42;94972.91;;;10.17;100.00
23303;BME280;11820;48.738;9.092;2023-03-31T13:56:54;94910.44;;;9.97;100.00
23303;BME280;11820;48.738;9.092;2023-03-31T13:59:55;94901.66;;;9.86;100.00
23303;BME280;11820;48.738;9.092;2023-03-31T14:02:52;94873.72;;;10.29;100.00
23303;BME280;11820;48.738;9.092;2023-03-31T14:05:30;94883.03;;;12.04;100.00
23303;BME280;11820;48.738;9.092;2023-03-31T14:08:01;94859.34;;;16.82;100.00
23303;BME280;11820;48.738;9.092;2023-03-31T14:10:36;94842.53;;;20.19;100.00
23303;BME280;11820;48.738;9.092;2023-03-31T14:15:37;94855.81;;;20.87;81.93
23303;BME280;11820;48.738;9.092;2023-03-31T14:18:03;94867.69;;;20.52;79.59
23303;BME280;11820;48.738;9.092;2023-03-31T14:20:42;94862.59;;;20.29;85.71
23303;BME280;11820;48.738;9.092;2023-03-31T14:23:28;94867.28;;;19.40;87.55
23303;BME280;11820;48.738;9.092;2023-03-31T14:26:03;94877.38;;;17.91;87.23
23303;BME280;11820;48.738;9.092;2023-03-31T14:28:46;94869.84;;;16.52;100.00
23303;BME280;11820;48.738;9.092;2023-03-31T14:37:08;94870.03;;;18.83;89.35
23303;BME280;11820;48.738;9.092;2023-03-31T14:39:43;94871.06;;;17.97;90.47
23303;BME280;11820;48.738;9.092;2023-03-31T14:42:14;94858.59;;;18.50;86.81
23303;BME280;11820;48.738;9.092;2023-03-31T14:44:41;94857.56;;;18.46;89.64
23303;BME280;11820;48.738;9.092;2023-03-31T14:47:35;94863.00;;;18.55;84.54
23303;BME280;11820;48.738;9.092;2023-03-31T14:50:04;94859.63;;;18.49;88.71
23303;BME280;11820;48.738;9.092;2023-03-31T14:52:33;94860.75;;;18.43;87.83
23303;BME280;11820;48.738;9.092;2023-03-31T14:55:00;94866.56;;;18.35;89.46
23303;BME280;11820;48.738;9.092;2023-03-31T14:57:37;94863.69;;;18.89;89.16
23303;BME280;11820;48.738;9.092;2023-03-31T15:00:07;94862.66;;;17.61;89.03
23303;BME280;11820;48.738;9.092;2023-03-31T15:02:35;94854.41;;;18.16;89.88
23303;BME280;11820;48.738;9.092;2023-03-31T15:05:06;94848.16;;;17.79;94.34
23303;BME280;11820;48.738;9.092;2023-03-31T15:07:34;94853.66;;;15.61;100.00
23303;BME280;11820;48.738;9.092;2023-03-31T15:09:59;94839.69;;;15.00;100.00
23303;BME280;11820;48.738;9.092;2023-03-31T15:12:27;94825.72;;;16.61;100.00
23303;BME280;11820;48.738;9.092;2023-03-31T15:14:57;94826.38;;;16.91;100.00
23303;BME280;11820;48.738;9.092;2023-03-31T15:17:31;94847.31;;;15.27;100.00
23303;BME280;11820;48.738;9.092;2023-03-31T15:19:58;94829.31;;;14.13;100.00
23303;BME280;11820;48.738;9.092;2023-03-31T15:22:26;94837.78;;;13.93;100.00
23303;BME280;11820;48.738;9.092;2023-03-31T15:24:52;94826.53;;;15.37;100.00
23303;BME280;11820;48.738;9.092;2023-03-31T15:27:30;94810.16;;;16.01;100.00
23303;BME280;11820;48.738;9.092;2023-03-31T15:29:58;94814.88;;;14.27;100.00
23303;BME280;11820;48.738;9.092;2023-03-31T15:32:30;94840.38;;;14.76;100.00